Weather at Kansas City International Airport

Public forecast

Using degrees Fahrenheit for public forecast. Weather courtesy of forecast.io.

Current aviation weather report (METAR) for Kansas City International Airport

Retrieved 2021/01/22 04:53 UTC (26 minutes ago):

KMCI 220453Z 01008KT 10SM CLR 02/M06 A3007 RMK AO2 SLP186 T00171056

Aviation forecast (TAF) for Kansas City International Airport

Retrieved 2021-01-22 00:40 UTC (5 hours ago):

TAF KMCI 212338Z 2200/2224 34006KT P6SM SCT100